Time;durP1;ratioP1;P1;durP2;ratioP2;P2;SDS_P1;SDS_P2;PMS_P1;PMS_P2;Temp;Humidity;BMP_temperature;BMP_pressure;BME280_temperature;BME280_humidity;BME280_pressure;Samples;Min_cycle;Max_cycle;Signal;HPM_P1;HPM_P2
2022/11/02 00:02:13;;;;;;;5.50;1.30;;;13.90;99.90;;;;;;5024129;28;20449;-80
2022/11/02 00:04:39;;;;;;;4.10;1.80;;;13.90;99.90;;;;;;5027730;28;20426;-81
2022/11/02 00:07:04;;;;;;;2.70;1.47;;;14.50;99.90;;;;;;5023358;28;20261;-80
2022/11/02 00:09:30;;;;;;;7.23;2.43;;;13.80;99.90;;;;;;5027623;28;20196;-79
2022/11/02 00:11:56;;;;;;;2.50;1.80;;;14.00;99.90;;;;;;5023340;28;20253;-81
2022/11/02 00:14:21;;;;;;;2.07;1.67;;;14.60;99.90;;;;;;5025746;28;20429;-81
2022/11/02 00:16:47;;;;;;;8.60;1.93;;;13.90;99.90;;;;;;5023564;28;20309;-80
2022/11/02 00:19:12;;;;;;;2.33;1.83;;;13.90;99.90;;;;;;5012119;28;20668;-80
2022/11/02 00:21:39;;;;;;;2.33;1.63;;;14.30;99.90;;;;;;5024100;28;20701;-80
2022/11/02 00:24:06;;;;;;;6.87;1.57;;;14.30;99.90;;;;;;5027458;28;20184;-80
2022/11/02 00:26:33;;;;;;;2.03;1.93;;;13.90;99.90;;;;;;5018074;28;20530;-80
2022/11/02 00:28:59;;;;;;;7.80;2.47;;;13.90;99.90;;;;;;5019920;28;20477;-80
2022/11/02 00:31:24;;;;;;;4.90;2.30;;;13.90;99.90;;;;;;5023121;28;20951;-80
2022/11/02 00:33:50;;;;;;;5.37;1.67;;;14.10;99.90;;;;;;5027457;28;20195;-80
2022/11/02 00:36:16;;;;;;;6.70;1.60;;;13.70;99.90;;;;;;5022977;28;20250;-80
2022/11/02 00:38:42;;;;;;;3.53;1.60;;;13.70;99.90;;;;;;5027392;28;20521;-80
2022/11/02 00:41:07;;;;;;;4.13;1.73;;;13.80;99.90;;;;;;5023679;28;20281;-80
2022/11/02 00:43:33;;;;;;;3.13;1.77;;;13.70;99.90;;;;;;5027083;28;20219;-80
2022/11/02 00:45:58;;;;;;;3.53;2.07;;;13.50;99.90;;;;;;5021873;28;20188;-81
2022/11/02 00:48:24;;;;;;;3.10;1.37;;;13.70;99.90;;;;;;5026709;28;20264;-81
2022/11/02 00:50:53;;;;;;;5.03;2.17;;;13.80;99.90;;;;;;5025086;28;20546;-81
2022/11/02 00:53:18;;;;;;;2.10;1.47;;;13.70;99.90;;;;;;5023289;28;21056;-80
2022/11/02 00:55:44;;;;;;;2.43;1.63;;;13.80;99.90;;;;;;5027198;28;20521;-81
2022/11/02 00:58:09;;;;;;;6.33;1.63;;;14.10;99.90;;;;;;5023167;28;20834;-81
2022/11/02 01:00:35;;;;;;;3.07;1.90;;;14.10;99.90;;;;;;5026879;28;20188;-80
2022/11/02 01:03:01;;;;;;;4.67;1.17;;;13.90;99.90;;;;;;5024107;28;20235;-79
2022/11/02 01:05:27;;;;;;;6.13;1.37;;;13.90;99.90;;;;;;5027371;28;20199;-80
2022/11/02 01:07:52;;;;;;;3.80;1.07;;;13.80;99.90;;;;;;5016825;28;20489;-80
2022/11/02 01:10:18;;;;;;;5.60;1.70;;;13.90;99.90;;;;;;5026345;28;20450;-80
2022/11/02 01:12:43;;;;;;;5.73;2.20;;;14.70;99.90;;;;;;5023724;28;20694;-81
2022/11/02 01:15:09;;;;;;;3.20;1.77;;;13.90;99.90;;;;;;5026504;28;20235;-79
2022/11/02 01:17:35;;;;;;;5.50;2.23;;;13.80;99.90;;;;;;5011502;28;20222;-79
2022/11/02 01:20:02;;;;;;;10.83;2.60;;;13.90;99.90;;;;;;5026671;28;20183;-80
2022/11/02 01:22:27;;;;;;;2.87;0.97;;;13.90;99.90;;;;;;5022252;28;20442;-80
2022/11/02 01:24:54;;;;;;;1.50;1.33;;;13.80;99.90;;;;;;5026498;28;20427;-80
2022/11/02 01:27:19;;;;;;;16.37;2.50;;;13.90;99.90;;;;;;5022489;28;20567;-80
2022/11/02 01:29:45;;;;;;;10.33;1.80;;;13.80;99.90;;;;;;5026456;28;20427;-80
2022/11/02 01:32:11;;;;;;;3.30;1.77;;;13.70;99.90;;;;;;5022087;28;20261;-80
2022/11/02 01:34:37;;;;;;;5.40;1.40;;;13.40;99.90;;;;;;5026289;28;20222;-80
2022/11/02 01:37:03;;;;;;;4.17;1.77;;;13.70;99.90;;;;;;5022224;28;20204;-80
2022/11/02 01:39:28;;;;;;;2.03;1.90;;;14.00;99.90;;;;;;5026008;28;20878;-81
2022/11/02 01:41:54;;;;;;;9.83;2.23;;;13.90;99.90;;;;;;5022080;28;20677;-80
2022/11/02 01:44:31;;;;;;;2.83;1.63;;;13.50;99.90;;;;;;5025854;28;20180;-80
2022/11/02 01:47:26;;;;;;;1.50;1.50;;;14.60;99.90;;;;;;5019969;28;20201;-81
2022/11/02 01:50:11;;;;;;;3.53;1.80;;;13.50;99.90;;;;;;5021129;28;20430;-80
2022/11/02 01:52:38;;;;;;;12.70;2.57;;;13.50;99.90;;;;;;5007919;28;20427;-80
2022/11/02 01:55:08;;;;;;;4.80;1.67;;;14.90;99.90;;;;;;5021204;28;20866;-81
2022/11/02 01:57:37;;;;;;;5.80;1.67;;;13.70;99.90;;;;;;5021904;28;20476;-81
2022/11/02 02:00:08;;;;;;;1.63;1.40;;;13.70;99.90;;;;;;5024001;28;20502;-81
2022/11/02 02:02:38;;;;;;;8.33;2.37;;;13.80;99.90;;;;;;5022085;28;20531;-81
2022/11/02 02:05:07;;;;;;;5.63;2.00;;;13.90;99.90;;;;;;5026154;28;20438;-81
2022/11/02 02:07:36;;;;;;;1.83;1.57;;;14.00;99.90;;;;;;5022612;28;20422;-80
2022/11/02 02:10:03;;;;;;;2.83;1.67;;;13.80;99.90;;;;;;5025924;28;20468;-81
2022/11/02 02:12:31;;;;;;;4.03;1.53;;;14.00;99.90;;;;;;5022089;28;20423;-79
2022/11/02 02:14:58;;;;;;;2.53;1.33;;;13.90;99.90;;;;;;5016736;28;20475;-79
2022/11/02 02:17:29;;;;;;;1.60;1.50;;;14.20;99.90;;;;;;5026060;28;20426;-81
2022/11/02 02:20:05;;;;;;;5.87;2.30;;;13.80;99.90;;;;;;5025798;28;20419;-80
2022/11/02 02:22:45;;;;;;;3.33;1.47;;;13.80;99.90;;;;;;5017946;28;20457;-78
2022/11/02 02:25:32;;;;;;;8.03;2.00;;;13.70;99.90;;;;;;5026132;28;20514;-80
2022/11/02 02:28:26;;;;;;;2.50;2.13;;;13.40;99.90;;;;;;5020576;28;20427;-80
2022/11/02 02:31:03;;;;;;;6.50;2.10;;;13.80;99.90;;;;;;5025988;28;20414;-79
2022/11/02 02:33:34;;;;;;;5.80;2.20;;;13.40;99.90;;;;;;5020621;28;20485;-81
2022/11/02 02:36:19;;;;;;;5.60;1.27;;;13.60;99.90;;;;;;5023216;28;20439;-81
2022/11/02 02:39:09;;;;;;;7.50;1.77;;;13.70;99.90;;;;;;5013410;28;20446;-81
2022/11/02 02:42:10;;;;;;;2.67;1.50;;;13.70;99.90;;;;;;5027587;28;20415;-80
2022/11/02 02:44:41;;;;;;;3.00;1.47;;;13.70;99.90;;;;;;4978572;28;21075;-80
2022/11/02 02:47:11;;;;;;;6.13;2.20;;;13.90;99.90;;;;;;5017337;28;20414;-82
2022/11/02 02:49:59;;;;;;;1.63;1.53;;;13.80;99.90;;;;;;5025441;28;20904;-81
2022/11/02 02:52:27;;;;;;;1.40;1.23;;;13.90;99.90;;;;;;5002687;28;20526;-79
2022/11/02 02:54:57;;;;;;;4.83;1.77;;;13.80;99.90;;;;;;5025780;28;20520;-80
2022/11/02 02:57:25;;;;;;;6.50;2.13;;;14.20;99.90;;;;;;5029535;28;20419;-81
2022/11/02 02:59:50;;;;;;;2.93;2.00;;;13.80;99.90;;;;;;5028687;28;20501;-81
2022/11/02 03:02:26;;;;;;;4.07;1.70;;;13.80;99.90;;;;;;5029369;28;20422;-80
2022/11/02 03:04:51;;;;;;;3.27;1.73;;;13.70;99.90;;;;;;5019916;28;20246;-80
2022/11/02 03:07:27;;;;;;;4.07;2.00;;;13.80;99.90;;;;;;5035024;28;20507;-80
2022/11/02 03:10:04;;;;;;;2.87;1.90;;;13.60;99.90;;;;;;5022584;28;20246;-80
2022/11/02 03:12:43;;;;;;;4.13;1.70;;;13.60;99.90;;;;;;5038393;28;20425;-80
2022/11/02 03:15:18;;;;;;;5.03;2.20;;;13.90;99.90;;;;;;5044358;28;20485;-80
2022/11/02 03:18:04;;;;;;;4.90;1.70;;;13.60;99.90;;;;;;5024498;28;20447;-80
2022/11/02 03:20:39;;;;;;;2.27;1.70;;;13.00;99.90;;;;;;5013999;28;20419;-80
2022/11/02 03:23:19;;;;;;;6.53;1.60;;;13.70;99.90;;;;;;5017625;28;20425;-81
2022/11/02 03:26:11;;;;;;;4.07;1.97;;;13.70;99.90;;;;;;5015260;28;20487;-79
2022/11/02 03:28:51;;;;;;;4.63;2.20;;;13.50;99.90;;;;;;5023630;28;20465;-79
2022/11/02 03:31:25;;;;;;;5.70;1.83;;;13.50;99.90;;;;;;5018572;28;20414;-80
2022/11/02 03:34:00;;;;;;;1.93;1.80;;;13.60;99.90;;;;;;5022820;28;20474;-81
2022/11/02 03:36:43;;;;;;;4.27;1.87;;;13.60;99.90;;;;;;5018807;28;20526;-80
2022/11/02 03:39:11;;;;;;;2.73;1.70;;;13.60;99.90;;;;;;5023261;28;20442;-81
2022/11/02 03:41:41;;;;;;;4.37;1.90;;;13.60;99.90;;;;;;5027238;28;21047;-81
2022/11/02 03:44:11;;;;;;;1.73;1.50;;;13.50;99.90;;;;;;5023510;28;20434;-81
2022/11/02 03:46:40;;;;;;;5.73;1.90;;;14.00;99.90;;;;;;5012197;28;20433;-81
2022/11/02 03:49:09;;;;;;;1.73;1.60;;;13.40;99.90;;;;;;5024535;28;21324;-80
2022/11/02 03:51:39;;;;;;;5.50;2.00;;;13.50;99.90;;;;;;5027067;28;20446;-81
2022/11/02 03:54:20;;;;;;;6.07;2.37;;;13.50;99.90;;;;;;5023668;28;20537;-81
2022/11/02 03:56:50;;;;;;;6.43;1.87;;;13.90;99.90;;;;;;4325666;28;10000747;-80
2022/11/02 03:59:16;;;;;;;4.13;1.90;;;13.40;99.90;;;;;;5014055;28;20599;-82
2022/11/02 04:01:44;;;;;;;4.80;2.07;;;13.30;99.90;;;;;;5023017;28;20541;-80
2022/11/02 04:04:10;;;;;;;1.63;1.50;;;13.40;99.90;;;;;;5024130;28;20954;-80
2022/11/02 04:06:36;;;;;;;2.03;1.90;;;13.50;99.90;;;;;;5020604;28;20434;-80
2022/11/02 04:09:03;;;;;;;3.10;1.50;;;13.30;99.90;;;;;;5022173;28;20458;-80
2022/11/02 04:19:42;;;;;;;3.57;2.00;;;14.20;99.90;;;;;;5022123;28;20211;-81
2022/11/02 04:27:36;;;;;;;2.67;1.20;;;13.70;99.90;;;;;;5006492;28;20515;-80
2022/11/02 04:30:02;;;;;;;1.60;1.50;;;13.50;99.90;;;;;;5023243;28;20533;-81
2022/11/02 04:35:12;;;;;;;6.03;1.90;;;13.70;99.90;;;;;;5023812;28;20563;-81
2022/11/02 04:40:23;;;;;;;8.33;1.80;;;13.60;99.90;;;;;;5020343;28;20199;-81
2022/11/02 04:42:49;;;;;;;1.97;1.43;;;13.40;99.90;;;;;;5025594;28;20423;-80
2022/11/02 04:45:15;;;;;;;4.27;2.80;;;13.50;99.90;;;;;;5019422;28;20198;-82
2022/11/02 04:47:40;;;;;;;2.57;1.33;;;14.00;99.90;;;;;;5022541;28;20740;-81
2022/11/02 04:50:06;;;;;;;3.90;1.53;;;13.40;99.90;;;;;;5023337;28;20199;-80
2022/11/02 04:52:31;;;;;;;2.47;1.33;;;13.40;99.90;;;;;;5026814;28;20278;-80
2022/11/02 04:54:57;;;;;;;2.70;1.70;;;14.30;99.90;;;;;;5022884;28;20226;-80
2022/11/02 04:57:23;;;;;;;3.70;1.57;;;15.10;99.90;;;;;;5015602;28;20191;-81
2022/11/02 04:59:48;;;;;;;5.83;1.50;;;13.60;99.90;;;;;;5012641;28;20683;-80
2022/11/02 05:02:14;;;;;;;2.13;1.50;;;14.20;99.90;;;;;;5025064;28;20211;-80
2022/11/02 05:04:39;;;;;;;4.07;2.07;;;13.60;99.90;;;;;;5024646;28;20685;-80
2022/11/02 05:07:06;;;;;;;2.70;1.57;;;13.50;99.90;;;;;;5011244;28;20203;-81
2022/11/02 05:09:32;;;;;;;1.70;1.60;;;13.60;99.90;;;;;;5024264;28;20203;-81
2022/11/02 05:11:58;;;;;;;1.30;1.20;;;13.50;99.90;;;;;;5009047;28;20584;-80
2022/11/02 05:14:23;;;;;;;3.67;2.17;;;13.50;99.90;;;;;;5025066;28;20207;-81
2022/11/02 05:16:49;;;;;;;4.13;1.17;;;13.60;99.90;;;;;;5024288;28;20286;-80
2022/11/02 05:19:14;;;;;;;1.83;1.57;;;13.40;99.90;;;;;;5024355;28;20286;-80
2022/11/02 05:21:40;;;;;;;2.00;1.30;;;13.30;99.90;;;;;;5024298;28;20200;-80
2022/11/02 05:24:06;;;;;;;1.70;1.60;;;13.30;99.90;;;;;;5026239;28;20187;-79
2022/11/02 05:26:31;;;;;;;2.83;1.67;;;13.50;99.90;;;;;;5011627;28;20575;-80
2022/11/02 05:28:57;;;;;;;5.23;3.00;;;13.30;99.90;;;;;;5014788;28;20181;-81
2022/11/02 05:31:23;;;;;;;3.50;1.10;;;13.50;99.90;;;;;;5036820;28;20529;-80
2022/11/02 05:33:48;;;;;;;5.50;1.77;;;13.40;99.90;;;;;;5023502;28;20200;-81
2022/11/02 05:36:15;;;;;;;9.80;3.03;;;14.20;99.90;;;;;;5024418;28;20283;-81
2022/11/02 05:38:40;;;;;;;2.10;1.20;;;13.70;99.90;;;;;;5022773;28;20226;-80
2022/11/02 05:41:06;;;;;;;3.13;1.10;;;13.50;99.90;;;;;;5019973;28;21171;-80
2022/11/02 05:43:32;;;;;;;3.97;1.77;;;13.70;99.90;;;;;;5023484;28;20343;-81
2022/11/02 05:46:00;;;;;;;4.70;1.80;;;13.70;99.90;;;;;;5024351;28;20241;-80
2022/11/02 05:48:29;;;;;;;5.50;1.70;;;13.60;99.90;;;;;;5023935;28;20179;-81
2022/11/02 05:50:59;;;;;;;4.90;1.40;;;13.60;99.90;;;;;;5024845;28;20500;-80
2022/11/02 05:53:26;;;;;;;6.33;1.90;;;13.50;99.90;;;;;;5018489;28;20492;-81
2022/11/02 05:55:52;;;;;;;4.70;1.80;;;13.40;99.90;;;;;;5016268;28;20426;-80
2022/11/02 05:58:18;;;;;;;4.53;2.10;;;13.70;99.90;;;;;;5021715;28;20522;-80
2022/11/02 06:00:43;;;;;;;6.63;3.27;;;13.50;99.90;;;;;;5025582;28;20498;-80
2022/11/02 06:03:09;;;;;;;2.50;1.40;;;13.60;99.90;;;;;;5025933;28;20195;-79
2022/11/02 06:05:35;;;;;;;3.17;1.50;;;13.80;99.90;;;;;;5009911;28;20204;-79
2022/11/02 06:08:01;;;;;;;4.73;1.63;;;13.50;99.90;;;;;;5028171;28;20479;-80
2022/11/02 06:10:28;;;;;;;11.50;1.47;;;13.10;99.90;;;;;;5027111;28;20207;-80
2022/11/02 06:12:59;;;;;;;3.50;2.47;;;13.40;99.90;;;;;;5034048;28;20875;-78
2022/11/02 06:15:25;;;;;;;5.17;1.60;;;13.40;99.90;;;;;;5023157;28;20608;-80
2022/11/02 06:17:51;;;;;;;4.90;1.63;;;13.30;99.90;;;;;;5032502;28;20419;-79
2022/11/02 06:20:17;;;;;;;5.37;1.40;;;13.30;99.90;;;;;;5028960;28;21063;-79
2022/11/02 06:22:43;;;;;;;5.13;3.20;;;13.30;99.90;;;;;;5015274;28;20536;-79
2022/11/02 06:25:09;;;;;;;7.37;1.70;;;13.90;99.90;;;;;;5031247;28;20508;-79
2022/11/02 06:27:35;;;;;;;5.90;1.90;;;13.40;99.90;;;;;;5029632;28;20434;-80
2022/11/02 06:30:01;;;;;;;7.50;1.60;;;13.40;99.90;;;;;;5019004;28;20804;-79
2022/11/02 06:32:27;;;;;;;4.53;1.63;;;13.40;99.90;;;;;;5030447;28;20492;-81
2022/11/02 06:34:52;;;;;;;3.40;1.80;;;13.20;99.90;;;;;;5026768;28;20301;-80
2022/11/02 06:37:18;;;;;;;3.60;1.80;;;13.10;99.90;;;;;;5037507;28;20491;-78
2022/11/02 06:39:44;;;;;;;15.83;1.90;;;13.20;99.90;;;;;;5028380;28;20207;-77
2022/11/02 06:42:09;;;;;;;8.97;2.43;;;13.30;99.90;;;;;;5032626;28;20199;-79
2022/11/02 06:44:35;;;;;;;9.83;1.33;;;13.20;99.90;;;;;;5027443;28;20608;-80
2022/11/02 06:47:03;;;;;;;7.00;1.90;;;13.40;99.90;;;;;;5046601;28;20279;-79
2022/11/02 06:49:29;;;;;;;4.00;1.50;;;13.20;99.90;;;;;;4332020;28;10000703;-79
2022/11/02 06:51:54;;;;;;;2.37;1.53;;;13.80;99.90;;;;;;5028303;28;20268;-80
2022/11/02 06:54:20;;;;;;;3.23;1.50;;;13.30;99.90;;;;;;5023845;28;20215;-80
2022/11/02 06:56:45;;;;;;;5.07;1.67;;;13.20;99.90;;;;;;5028280;28;20196;-78
2022/11/02 06:59:11;;;;;;;4.37;1.90;;;13.40;99.90;;;;;;5026336;28;20563;-80
2022/11/02 07:01:37;;;;;;;1.47;1.37;;;13.30;99.90;;;;;;5030973;28;20215;-79
2022/11/02 07:04:02;;;;;;;4.53;1.70;;;13.50;99.90;;;;;;5017483;28;20192;-78
2022/11/02 07:06:28;;;;;;;5.77;1.60;;;13.40;99.90;;;;;;4679067;28;10000125;-80
2022/11/02 07:08:54;;;;;;;3.13;1.80;;;13.50;99.90;;;;;;5025947;28;20215;-79
2022/11/02 07:11:20;;;;;;;6.40;1.70;;;13.50;99.90;;;;;;5022952;28;20207;-79
2022/11/02 07:13:46;;;;;;;9.53;2.10;;;13.50;99.90;;;;;;5020733;28;20492;-79
2022/11/02 07:16:12;;;;;;;8.00;2.40;;;13.60;99.90;;;;;;5019462;28;20463;-79
2022/11/02 07:18:38;;;;;;;5.70;1.37;;;14.00;99.90;;;;;;5019459;28;20920;-79
2022/11/02 07:21:04;;;;;;;4.03;1.20;;;13.30;99.90;;;;;;5014948;28;20525;-79
2022/11/02 07:23:30;;;;;;;8.60;1.67;;;13.40;99.90;;;;;;5023073;28;20561;-80
2022/11/02 07:25:55;;;;;;;5.50;2.30;;;13.40;99.90;;;;;;4997685;28;20206;-79
2022/11/02 07:28:21;;;;;;;4.03;1.30;;;13.40;99.90;;;;;;5023503;28;20713;-81
2022/11/02 07:30:46;;;;;;;7.50;2.70;;;13.60;99.90;;;;;;5020156;28;20200;-80
2022/11/02 07:33:12;;;;;;;5.40;1.80;;;13.90;99.90;;;;;;5025425;28;20203;-80
2022/11/02 07:35:38;;;;;;;6.23;1.80;;;14.10;99.90;;;;;;5020677;28;20199;-79
2022/11/02 07:38:05;;;;;;;4.13;1.47;;;13.70;99.90;;;;;;5022795;28;20544;-80
2022/11/02 07:40:33;;;;;;;9.10;1.57;;;13.80;99.90;;;;;;5020362;28;20578;-80
2022/11/02 07:42:59;;;;;;;9.13;1.93;;;13.40;99.90;;;;;;5016249;28;20434;-80
2022/11/02 07:45:25;;;;;;;1.57;1.20;;;13.50;99.90;;;;;;5018984;28;21010;-80
2022/11/02 07:47:50;;;;;;;4.90;2.10;;;13.40;99.90;;;;;;5018943;28;20520;-80
2022/11/02 07:50:20;;;;;;;3.13;1.80;;;13.70;99.90;;;;;;5020536;28;21115;-81
2022/11/02 07:52:53;;;;;;;2.53;1.40;;;13.70;99.90;;;;;;5014412;28;20450;-80
2022/11/02 07:55:21;;;;;;;5.47;2.10;;;13.70;99.90;;;;;;5019255;28;20474;-81
2022/11/02 07:57:55;;;;;;;2.57;1.37;;;14.40;99.90;;;;;;5021204;28;20519;-80
2022/11/02 08:00:20;;;;;;;5.97;1.90;;;13.60;99.90;;;;;;5024328;28;20439;-81
2022/11/02 08:02:46;;;;;;;2.97;2.00;;;13.60;99.90;;;;;;5012772;28;20457;-82
2022/11/02 08:05:12;;;;;;;3.37;1.70;;;13.40;99.90;;;;;;5020676;28;20198;-81
2022/11/02 08:07:37;;;;;;;8.83;2.07;;;13.50;99.90;;;;;;5020711;28;20409;-80
2022/11/02 08:12:58;;;;;;;2.07;1.53;;;13.50;99.90;;;;;;5162238;23;20243;-80
2022/11/02 08:15:24;;;;;;;4.87;1.67;;;13.60;99.90;;;;;;4963714;28;20485;-81
2022/11/02 08:18:01;;;;;;;5.30;1.90;;;13.70;99.90;;;;;;4979452;28;20824;-81
2022/11/02 08:20:26;;;;;;;3.13;1.70;;;13.70;99.90;;;;;;4965797;28;20435;-81
2022/11/02 08:22:52;;;;;;;2.77;1.37;;;13.60;99.90;;;;;;4975385;28;20495;-82
2022/11/02 08:25:17;;;;;;;5.53;1.60;;;13.80;99.90;;;;;;4976958;28;20219;-81
2022/11/02 08:27:43;;;;;;;2.07;1.97;;;13.60;99.90;;;;;;4979907;28;20216;-83
2022/11/02 08:30:10;;;;;;;6.20;2.10;;;13.50;99.90;;;;;;4967696;28;20702;-80
2022/11/02 08:32:35;;;;;;;7.53;3.63;;;13.70;99.90;;;;;;4975525;28;20388;-82
2022/11/02 08:35:01;;;;;;;2.37;1.17;;;14.40;99.90;;;;;;4956191;28;20760;-80
2022/11/02 08:37:27;;;;;;;3.90;1.60;;;13.80;99.90;;;;;;4977078;28;20201;-80
2022/11/02 08:39:52;;;;;;;1.90;1.60;;;13.90;99.90;;;;;;4979764;28;20648;-81
2022/11/02 08:42:18;;;;;;;2.77;1.73;;;14.30;99.90;;;;;;4972607;28;20178;-82
2022/11/02 08:44:43;;;;;;;2.07;1.07;;;14.30;99.90;;;;;;4979176;28;20282;-81
2022/11/02 08:47:09;;;;;;;6.20;2.00;;;14.40;99.90;;;;;;4958342;28;20277;-82
2022/11/02 08:49:35;;;;;;;3.63;1.93;;;14.50;99.90;;;;;;4976809;28;20193;-80
2022/11/02 08:52:00;;;;;;;7.17;1.73;;;14.40;99.90;;;;;;4973241;28;20182;-80
2022/11/02 08:54:26;;;;;;;3.03;1.60;;;14.90;99.90;;;;;;4976233;28;20224;-80
2022/11/02 08:56:51;;;;;;;4.97;2.20;;;14.70;99.90;;;;;;4977107;28;20378;-80
2022/11/02 08:59:17;;;;;;;2.47;1.30;;;14.70;99.90;;;;;;4980821;28;20185;-80
2022/11/02 09:01:42;;;;;;;2.53;1.33;;;14.80;99.90;;;;;;4967179;28;20574;-80
2022/11/02 09:04:08;;;;;;;3.23;1.47;;;15.40;99.90;;;;;;4973681;28;20186;-80
2022/11/02 09:06:34;;;;;;;8.73;1.93;;;15.40;99.90;;;;;;4969164;28;21030;-80
2022/11/02 09:08:59;;;;;;;1.80;1.70;;;15.30;99.90;;;;;;4976933;28;20197;-80
2022/11/02 09:11:25;;;;;;;1.70;1.60;;;15.10;99.90;;;;;;4985728;28;20209;-80
2022/11/02 09:13:51;;;;;;;2.67;1.30;;;15.20;99.90;;;;;;4991562;28;20285;-80
2022/11/02 09:16:16;;;;;;;3.63;2.27;;;15.70;99.90;;;;;;4979648;28;20225;-81
2022/11/02 09:18:42;;;;;;;6.53;2.10;;;15.40;99.90;;;;;;4983521;28;20260;-79
2022/11/02 09:21:08;;;;;;;5.67;1.87;;;15.30;99.90;;;;;;4978821;28;20235;-78
2022/11/02 09:23:33;;;;;;;3.20;1.63;;;15.10;99.90;;;;;;4967820;28;20197;-79
2022/11/02 09:25:59;;;;;;;4.03;2.00;;;15.50;99.90;;;;;;4980888;28;20548;-80
2022/11/02 09:28:25;;;;;;;3.60;2.17;;;15.20;99.90;;;;;;4984547;28;20184;-78
2022/11/02 09:30:51;;;;;;;8.03;2.47;;;15.80;99.90;;;;;;4994625;28;20436;-79
2022/11/02 09:33:17;;;;;;;3.00;2.00;;;16.00;99.90;;;;;;4995348;28;20473;-80
2022/11/02 09:35:45;;;;;;;1.60;1.60;;;16.20;99.90;;;;;;4994986;28;20173;-80
2022/11/02 09:38:11;;;;;;;3.57;1.53;;;15.60;99.90;;;;;;4988722;28;20538;-80
2022/11/02 09:40:58;;;;;;;3.17;1.60;;;16.30;99.90;;;;;;4977921;28;20523;-79
2022/11/02 09:44:01;;;;;;;4.03;2.20;;;16.50;99.90;;;;;;4989843;28;20200;-78
2022/11/02 09:46:26;;;;;;;3.20;1.93;;;17.00;99.90;;;;;;5001281;28;20739;-79
2022/11/02 09:48:59;;;;;;;2.63;1.37;;;17.10;99.90;;;;;;4981134;28;20467;-78
2022/11/02 09:51:35;;;;;;;4.87;2.27;;;16.70;99.90;;;;;;4979923;28;20211;-79
2022/11/02 09:54:22;;;;;;;3.70;1.90;;;17.10;99.90;;;;;;4998318;28;20463;-81
2022/11/02 09:56:50;;;;;;;3.60;1.83;;;17.40;99.90;;;;;;4981788;28;20466;-80
2022/11/02 09:59:18;;;;;;;2.70;1.90;;;17.10;99.90;;;;;;4985252;28;20467;-78
2022/11/02 10:01:56;;;;;;;4.10;1.80;;;16.10;99.90;;;;;;4987544;28;20538;-79
2022/11/02 10:04:56;;;;;;;1.70;1.57;;;15.80;99.90;;;;;;4987481;28;20443;-80
2022/11/02 10:07:46;;;;;;;6.50;1.87;;;15.60;99.90;;;;;;4984838;28;20767;-80
2022/11/02 10:10:32;;;;;;;3.90;1.50;;;15.50;99.90;;;;;;4995205;28;20439;-78
2022/11/02 10:13:16;;;;;;;4.33;1.50;;;15.30;99.90;;;;;;4998826;28;20458;-80
2022/11/02 10:16:14;;;;;;;2.30;1.53;;;15.30;99.90;;;;;;4989529;28;20444;-80
2022/11/02 10:18:41;;;;;;;1.43;1.33;;;15.70;99.90;;;;;;4994387;28;20574;-81
2022/11/02 10:21:14;;;;;;;5.83;1.57;;;15.80;99.90;;;;;;4991703;28;20433;-79
2022/11/02 10:23:49;;;;;;;4.73;2.70;;;15.60;99.90;;;;;;4988706;28;20420;-80
2022/11/02 10:26:28;;;;;;;2.87;1.63;;;17.00;99.90;;;;;;4979631;28;20452;-80
2022/11/02 10:35:32;;;;;;;3.13;1.33;;;16.80;99.90;;;;;;4992289;28;20530;-80
2022/11/02 10:38:33;;;;;;;3.70;2.17;;;16.20;99.90;;;;;;4980234;28;20416;-79
2022/11/02 10:41:28;;;;;;;5.93;1.40;;;16.20;99.90;;;;;;4998459;28;20431;-82
2022/11/02 10:44:11;;;;;;;4.10;3.80;;;16.80;99.90;;;;;;4986913;28;20448;-81
2022/11/02 10:46:42;;;;;;;2.43;1.70;;;;;;;;;;4993883;28;20454;-81
2022/11/02 10:49:33;;;;;;;2.00;1.40;;;;;;;;;;5010008;28;20434;-80
2022/11/02 10:51:59;;;;;;;2.37;1.50;;;;;;;;;;4996522;28;20510;-79
2022/11/02 10:54:25;;;;;;;5.10;2.33;;;;;;;;;;5011361;28;21067;-80
2022/11/02 10:56:51;;;;;;;4.27;1.33;;;;;;;;;;5021458;28;20427;-80
2022/11/02 10:59:19;;;;;;;5.17;1.80;;;;;;;;;;5020752;28;20465;-79
2022/11/02 11:01:51;;;;;;;1.40;1.30;;;;;;;;;;5008988;28;21180;-80
2022/11/02 11:04:21;;;;;;;2.30;1.47;;;;;;;;;;4316932;28;10000640;-79
2022/11/02 11:06:47;;;;;;;5.20;1.37;;;;;;;;;;5003811;28;20481;-79
2022/11/02 11:09:13;;;;;;;2.27;1.40;;;;;;;;;;5009011;28;20439;-79
2022/11/02 11:11:39;;;;;;;6.90;2.03;;;;;;;;;;4999947;28;20462;-81
2022/11/02 11:14:15;;;;;;;1.53;1.40;;;19.40;93.30;;;;;;5011730;28;20821;-79
2022/11/02 11:16:56;;;;;;;3.47;1.50;;;18.40;93.30;;;;;;4997683;28;20988;-79
2022/11/02 11:19:42;;;;;;;2.00;1.50;;;18.70;94.60;;;;;;4997199;28;20746;-79
2022/11/02 11:22:34;;;;;;;1.60;1.50;;;19.90;93.00;;;;;;4995875;28;20685;-81
2022/11/02 11:25:09;;;;;;;5.60;1.80;;;20.10;92.30;;;;;;5011969;28;20631;-81
2022/11/02 11:27:49;;;;;;;3.77;1.60;;;;;;;;;;5016303;28;20437;-83
2022/11/02 11:30:37;;;;;;;4.00;1.23;;;21.20;90.00;;;;;;5001738;28;20446;-83
2022/11/02 11:33:05;;;;;;;2.87;1.20;;;21.30;88.10;;;;;;5001026;28;20569;-80
2022/11/02 11:35:34;;;;;;;3.63;1.40;;;21.90;87.90;;;;;;4990786;28;20893;-81
2022/11/02 11:38:05;;;;;;;2.43;1.30;;;21.50;86.70;;;;;;5002776;28;20521;-81
2022/11/02 11:40:42;;;;;;;1.37;1.37;;;22.00;84.90;;;;;;4987162;28;20436;-81
2022/11/02 11:43:15;;;;;;;3.50;1.10;;;;;;;;;;4979416;28;21087;-80
2022/11/02 11:45:59;;;;;;;2.43;2.20;;;22.70;70.30;;;;;;4995708;28;20507;-83
2022/11/02 11:48:30;;;;;;;1.50;1.27;;;22.80;69.20;;;;;;4982288;28;20438;-82
2022/11/02 11:50:56;;;;;;;1.97;1.50;;;22.50;69.30;;;;;;4993176;28;20567;-81
2022/11/02 11:53:24;;;;;;;4.30;1.97;;;22.20;69.90;;;;;;5003877;28;20510;-82
2022/11/02 11:55:58;;;;;;;7.80;1.47;;;;;;;;;;4991931;28;20432;-81
2022/11/02 11:58:28;;;;;;;4.33;2.00;;;;;;;;;;5005191;28;20485;-82
2022/11/02 12:01:05;;;;;;;4.43;2.00;;;;;;;;;;4995523;28;20401;-79
2022/11/02 12:03:31;;;;;;;2.97;1.63;;;;;;;;;;5006649;28;20897;-80
2022/11/02 12:06:19;;;;;;;3.70;1.40;;;;;;;;;;4988811;28;20515;-83
2022/11/02 12:09:03;;;;;;;5.30;1.53;;;;;;;;;;4965924;28;20862;-81
2022/11/02 12:11:35;;;;;;;1.17;1.00;;;;;;;;;;4987841;28;20499;-81
2022/11/02 12:14:01;;;;;;;4.23;1.93;;;;;;;;;;4977739;28;20484;-80
2022/11/02 12:16:48;;;;;;;2.00;1.63;;;;;;;;;;4988917;28;20474;-81
2022/11/02 12:19:29;;;;;;;2.80;1.70;;;;;;;;;;4992373;28;20540;-81
2022/11/02 12:21:58;;;;;;;2.53;1.80;;;;;;;;;;4995199;28;20627;-80
2022/11/02 12:24:24;;;;;;;3.73;2.10;;;;;;;;;;5010151;28;20435;-79
2022/11/02 12:26:55;;;;;;;1.97;1.47;;;;;;;;;;4974560;28;20459;-81
2022/11/02 12:29:39;;;;;;;2.17;1.20;;;;;;;;;;4978025;28;20440;-82
2022/11/02 12:32:14;;;;;;;1.63;1.53;;;;;;;;;;4991523;28;20496;-79
2022/11/02 12:34:40;;;;;;;3.80;1.63;;;;;;;;;;5014961;28;20482;-80
2022/11/02 12:37:06;;;;;;;2.10;1.50;;;;;;;;;;5008509;28;20463;-81
2022/11/02 12:39:52;;;;;;;4.53;2.07;;;;;;;;;;5011292;28;20443;-79
2022/11/02 12:42:27;;;;;;;1.13;1.13;;;;;;;;;;5011863;28;20431;-79
2022/11/02 12:44:58;;;;;;;2.07;1.60;;;;;;;;;;5008708;28;20445;-82
2022/11/02 12:47:25;;;;;;;5.73;1.70;;;;;;;;;;5009508;28;20554;-81
2022/11/02 12:50:10;;;;;;;2.33;1.73;;;;;;;;;;4999417;28;20448;-81
2022/11/02 12:52:54;;;;;;;5.23;1.40;;;;;;;;;;5009181;28;20817;-80
2022/11/02 12:55:23;;;;;;;2.40;1.60;;;;;;;;;;5012258;28;20478;-81
2022/11/02 12:57:50;;;;;;;2.30;1.30;;;;;;;;;;5007006;28;20443;-81
2022/11/02 13:00:17;;;;;;;3.20;1.10;;;;;;;;;;5000730;28;20431;-80
2022/11/02 13:02:43;;;;;;;5.30;2.83;;;;;;;;;;5006414;28;20428;-80
2022/11/02 13:05:16;;;;;;;3.00;1.50;;;22.20;70.50;;;;;;4991644;28;20434;-81
2022/11/02 13:07:46;;;;;;;6.20;2.00;;;;;;;;;;5000287;28;20839;-78
2022/11/02 13:10:18;;;;;;;11.13;1.67;;;;;;;;;;5020205;28;20858;-81
2022/11/02 13:12:45;;;;;;;2.10;1.83;;;;;;;;;;4988886;28;20447;-78
2022/11/02 13:15:14;;;;;;;4.77;1.90;;;;;;;;;;5009945;28;20496;-78
2022/11/02 13:17:44;;;;;;;4.97;1.50;;;;;;;;;;4995411;28;20711;-85
2022/11/02 13:20:19;;;;;;;3.43;3.13;;;;;;;;;;5007286;28;20770;-82
2022/11/02 13:22:48;;;;;;;3.40;1.63;;;;;;;;;;4988455;28;20439;-82
2022/11/02 13:25:16;;;;;;;5.27;1.93;;;;;;;;;;4993198;28;20435;-84
2022/11/02 13:27:53;;;;;;;5.77;1.60;;;;;;;;;;5018792;28;20443;-82
2022/11/02 13:30:20;;;;;;;6.43;1.63;;;;;;;;;;4994191;28;20467;-81
2022/11/02 13:33:02;;;;;;;5.20;2.23;;;;;;;;;;5019101;28;20459;-80
2022/11/02 13:35:28;;;;;;;5.07;1.60;;;;;;;;;;5006326;28;20479;-81
2022/11/02 13:38:02;;;;;;;3.67;1.73;;;;;;;;;;5014253;28;20435;-81
2022/11/02 13:40:49;;;;;;;5.43;1.50;;;;;;;;;;5004780;28;20438;-81
2022/11/02 13:43:16;;;;;;;4.90;2.00;;;;;;;;;;4994946;28;20477;-82
2022/11/02 13:45:42;;;;;;;4.47;1.67;;;;;;;;;;5006156;28;20437;-81
2022/11/02 13:48:17;;;;;;;4.90;1.50;;;;;;;;;;5017053;28;20486;-80
2022/11/02 13:50:46;;;;;;;2.97;1.90;;;;;;;;;;5005879;28;20530;-79